Time;durP1;ratioP1;P1;durP2;ratioP2;P2;SDS_P1;SDS_P2;PMS_P1;PMS_P2;Temp;Humidity;BMP_temperature;BMP_pressure;BME280_temperature;BME280_humidity;BME280_pressure;Samples;Min_cycle;Max_cycle;Signal;HPM_P1;HPM_P2
2021/11/17 02:26:13;;;;;;;19.75;15.77;;;;;;;8.04;65.19;100565.00;4367989;32;33011;-80
2021/11/17 02:29:52;;;;;;;17.00;15.25;;;;;;;7.82;65.55;100564.84;4377431;32;33901;-80
2021/11/17 02:32:42;;;;;;;20.60;14.77;;;;;;;7.75;65.54;100564.38;4365498;32;34813;-80
2021/11/17 02:35:17;;;;;;;20.35;15.23;;;;;;;7.73;65.58;100560.19;4368585;32;34335;-81
2021/11/17 02:37:54;;;;;;;18.65;16.48;;;;;;;7.96;64.89;100557.59;4369340;32;33265;-80
2021/11/17 02:40:25;;;;;;;27.02;14.50;;;;;;;8.01;64.86;100549.31;4369603;32;35948;-81
2021/11/17 02:43:08;;;;;;;18.98;14.73;;;;;;;8.17;63.89;100548.09;4379942;32;34578;-80
2021/11/17 02:45:46;;;;;;;17.98;15.52;;;;;;;8.00;64.56;100545.81;4378988;32;32776;-82
2021/11/17 02:48:29;;;;;;;18.77;15.82;;;;;;;7.68;65.62;100541.09;4380155;32;33911;-80
2021/11/17 02:51:14;;;;;;;21.52;18.73;;;;;;;7.91;64.94;100541.16;4379545;32;34154;-81
2021/11/17 02:54:19;;;;;;;16.87;15.18;;;;;;;7.94;64.55;100540.09;4364576;32;34331;-83
2021/11/17 02:57:15;;;;;;;23.10;16.48;;;;;;;7.95;64.50;100539.16;4369216;32;33998;-80
2021/11/17 03:00:08;;;;;;;23.42;15.02;;;;;;;7.93;64.45;100535.78;4377990;32;33660;-84
2021/11/17 03:02:47;;;;;;;22.52;16.85;;;;;;;7.68;65.22;100546.41;4369043;32;34502;-80
2021/11/17 03:06:00;;;;;;;16.35;14.20;;;;;;;7.66;65.20;100537.72;4369145;32;35344;-80
2021/11/17 03:08:47;;;;;;;20.83;14.10;;;;;;;7.77;64.51;100532.50;4356144;32;34054;-80
2021/11/17 03:11:28;;;;;;;19.80;15.38;;;;;;;7.70;64.99;100537.41;4369143;32;33587;-81
2021/11/17 03:14:30;;;;;;;16.40;14.23;;;;;;;7.80;64.57;100524.34;4367147;32;34317;-80
2021/11/17 03:17:07;;;;;;;24.50;15.25;;;;;;;7.62;64.91;100523.00;4389510;32;34349;-80
2021/11/17 03:20:04;;;;;;;16.40;14.38;;;;;;;7.79;64.28;100522.66;4379778;32;35721;-79
2021/11/17 03:22:54;;;;;;;22.15;13.45;;;;;;;7.68;64.71;100526.06;4361054;32;32005;-80
2021/11/17 03:25:25;;;;;;;18.87;16.90;;;;;;;7.78;64.60;100526.25;4379567;32;33524;-80
2021/11/17 03:28:05;;;;;;;25.95;16.12;;;;;;;7.76;64.83;100523.75;4367496;32;34267;-80
2021/11/17 03:30:38;;;;;;;17.12;14.18;;;;;;;7.79;64.29;100523.50;4368061;32;34414;-80
2021/11/17 03:33:19;;;;;;;16.95;13.05;;;;;;;7.97;64.11;100530.16;4379467;32;32048;-80
2021/11/17 03:35:55;;;;;;;20.20;14.27;;;;;;;7.91;64.08;100533.22;4368068;32;33862;-81
2021/11/17 03:38:45;;;;;;;18.10;15.18;;;;;;;7.97;64.01;100527.50;4368726;32;35819;-81
2021/11/17 03:41:21;;;;;;;19.55;14.82;;;;;;;8.10;63.80;100527.47;4368411;32;35074;-81
2021/11/17 03:44:30;;;;;;;26.27;16.12;;;;;;;8.03;64.29;100531.50;4368737;32;34583;-80
2021/11/17 03:46:58;;;;;;;22.92;15.45;;;;;;;7.95;64.44;100520.59;4377981;32;34169;-80
2021/11/17 03:49:53;;;;;;;15.02;13.35;;;;;;;7.85;64.85;100528.34;4368095;32;35162;-80
2021/11/17 03:52:36;;;;;;;20.85;14.27;;;;;;;7.72;65.35;100521.41;4375029;32;33912;-84
2021/11/17 03:55:34;;;;;;;23.50;17.70;;;;;;;7.56;65.87;100526.09;4379006;32;33735;-81
2021/11/17 03:58:31;;;;;;;18.17;16.30;;;;;;;7.75;65.47;100527.31;4378408;32;34419;-80
2021/11/17 04:01:11;;;;;;;16.25;14.60;;;;;;;7.69;65.51;100522.47;4353873;32;35081;-80
2021/11/17 04:04:15;;;;;;;24.10;14.95;;;;;;;7.54;66.35;100535.94;4379076;32;35188;-80
2021/11/17 04:07:14;;;;;;;22.35;16.92;;;;;;;7.57;66.52;100528.59;4335801;33;33635;-80
2021/11/17 04:10:00;;;;;;;17.65;15.82;;;;;;;7.45;67.31;100532.13;4335770;33;33301;-84
2021/11/17 04:13:00;;;;;;;22.75;16.75;;;;;;;7.54;67.07;100526.19;4335186;33;34537;-81
2021/11/17 04:15:28;;;;;;;26.30;18.20;;;;;;;7.59;67.16;100534.66;4336041;33;34195;-80
2021/11/17 04:18:26;;;;;;;19.08;15.57;;;;;;;7.67;67.10;100527.03;4335939;33;32472;-80
2021/11/17 04:21:00;;;;;;;23.33;17.73;;;;;;;7.95;65.95;100531.19;4329554;33;33324;-81
2021/11/17 04:23:48;;;;;;;17.45;14.98;;;;;;;8.01;66.02;100533.41;4335767;33;35581;-80
2021/11/17 04:26:22;;;;;;;27.85;17.08;;;;;;;8.05;66.00;100534.88;4323436;33;32748;-82
2021/11/17 04:29:08;;;;;;;19.62;15.30;;;;;;;7.92;66.58;100526.13;4335546;33;33276;-80
2021/11/17 04:31:58;;;;;;;23.58;18.15;;;;;;;7.93;66.60;100536.59;4335556;33;33611;-80
2021/11/17 04:34:56;;;;;;;20.77;16.50;;;;;;;7.95;66.66;100531.19;4335519;33;35628;-80
2021/11/17 04:37:45;;;;;;;32.63;18.80;;;;;;;7.96;66.64;100531.09;4329259;33;32968;-80
2021/11/17 04:40:25;;;;;;;23.87;17.75;;;;;;;8.12;66.12;100529.00;4323010;33;32151;-81
2021/11/17 04:42:53;;;;;;;20.05;16.58;;;;;;;7.88;66.98;100536.09;4349678;32;33610;-80
2021/11/17 04:45:33;;;;;;;17.95;16.08;;;;;;;7.94;66.97;100535.63;4368285;32;35684;-80
2021/11/17 04:48:20;;;;;;;21.02;18.83;;;;;;;7.88;67.20;100535.25;4367543;32;34506;-79
2021/11/17 04:50:53;;;;;;;22.93;20.50;;;;;;;7.68;67.77;100536.66;4366289;32;31832;-80
2021/11/17 04:53:27;;;;;;;30.23;20.65;;;;;;;7.56;68.28;100529.56;4366639;32;32952;-80
2021/11/17 04:55:58;;;;;;;23.05;19.85;;;;;;;7.65;68.02;100533.38;4367635;32;35585;-81
2021/11/17 04:59:07;;;;;;;27.17;19.00;;;;;;;7.74;67.38;100528.28;4378891;32;32853;-82
2021/11/17 05:01:44;;;;;;;16.15;14.45;;;;;;;7.40;68.80;100536.91;4366176;32;32225;-80
2021/11/17 05:04:43;;;;;;;24.77;19.90;;;;;;;7.80;67.44;100530.50;4373373;32;34081;-81
2021/11/17 05:07:32;;;;;;;22.65;19.87;;;;;;;8.00;66.73;100518.47;4366519;32;34355;-80
2021/11/17 05:10:36;;;;;;;17.80;15.98;;;;;;;7.94;66.81;100521.56;4367757;32;34280;-79
2021/11/17 05:13:53;;;;;;;28.52;17.40;;;;;;;7.80;66.97;100530.50;4350816;32;32899;-80
2021/11/17 05:17:02;;;;;;;23.45;16.17;;;;;;;7.71;67.11;100530.28;4352436;32;33065;-80
2021/11/17 05:20:21;;;;;;;23.05;17.62;;;;;;;7.50;67.75;100535.31;4371930;32;34695;-81
2021/11/17 05:23:21;;;;;;;25.75;17.55;;;;;;;7.88;66.43;100528.16;4349868;32;33743;-81
2021/11/17 05:25:54;;;;;;;25.30;18.10;;;;;;;7.88;66.43;100528.16;4343024;32;33552;-79
2021/11/17 05:28:25;;;;;;;17.35;15.70;;;;;;;7.74;67.00;100530.91;4340053;32;33158;-80
2021/11/17 05:31:21;;;;;;;27.25;17.15;;;;;;;7.74;66.87;100527.44;4351828;32;35036;-83
2021/11/17 05:34:14;;;;;;;27.58;17.85;;;;;;;7.81;66.66;100526.06;4351161;32;34654;-82
2021/11/17 05:36:49;;;;;;;27.15;18.52;;;;;;;7.69;67.36;100529.56;4339348;32;34167;-81
2021/11/17 05:39:36;;;;;;;23.75;16.15;;;;;;;7.48;68.28;100524.00;4340098;32;33622;-79
2021/11/17 05:42:30;;;;;;;23.35;16.92;;;;;;;7.74;67.35;100530.91;4351537;32;34630;-81
2021/11/17 05:45:36;;;;;;;26.17;19.25;;;;;;;7.61;67.69;100535.41;4339436;32;34050;-80
2021/11/17 05:48:30;;;;;;;21.52;19.27;;;;;;;7.73;67.21;100544.28;4351799;32;33267;-80
2021/11/17 05:51:21;;;;;;;25.17;19.05;;;;;;;7.68;67.14;100541.97;4328034;32;33425;-80
2021/11/17 05:54:26;;;;;;;20.65;17.85;;;;;;;7.51;67.54;100546.72;4328005;32;33465;-82
2021/11/17 05:57:03;;;;;;;20.55;17.10;;;;;;;7.76;66.29;100536.97;4351236;32;34656;-82
2021/11/17 05:59:48;;;;;;;23.98;18.83;;;;;;;7.40;67.94;100544.84;4366143;32;33714;-81
2021/11/17 06:02:47;;;;;;;26.20;19.35;;;;;;;7.69;67.16;100542.78;4367717;32;33441;-82
2021/11/17 06:05:15;;;;;;;31.48;19.35;;;;;;;7.51;67.66;100544.09;4367973;32;33096;-82
2021/11/17 06:07:42;;;;;;;23.05;16.25;;;;;;;7.59;67.62;100539.97;4380168;32;34466;-82
2021/11/17 06:10:12;;;;;;;27.90;18.60;;;;;;;7.88;66.82;100535.25;4369006;32;33660;-80
2021/11/17 06:12:41;;;;;;;21.48;19.02;;;;;;;7.85;66.80;100531.00;4355743;32;33277;-80
2021/11/17 06:15:12;;;;;;;27.27;19.30;;;;;;;7.94;66.42;100533.00;4380537;32;35722;-80
2021/11/17 06:17:40;;;;;;;26.42;21.48;;;;;;;7.86;66.79;100534.50;4355526;32;34441;-82
2021/11/17 06:20:10;;;;;;;28.98;18.33;;;;;;;7.79;67.20;100538.53;4367842;32;32147;-83
2021/11/17 06:22:42;;;;;;;24.12;16.25;;;;;;;7.65;67.87;100541.34;4380482;32;33650;-81
2021/11/17 06:25:11;;;;;;;26.98;20.23;;;;;;;7.63;67.81;100544.06;4367063;32;35525;-82
2021/11/17 06:27:43;;;;;;;23.15;20.42;;;;;;;7.78;67.42;100550.94;4379912;32;34923;-82
2021/11/17 06:30:13;;;;;;;20.25;17.00;;;;;;;7.87;67.10;100555.59;4367548;32;33678;-82
2021/11/17 06:32:42;;;;;;;23.33;19.83;;;;;;;7.87;66.95;100549.44;4366994;32;34069;-80
2021/11/17 06:35:10;;;;;;;21.80;17.08;;;;;;;7.68;67.71;100552.56;4354177;32;34890;-79
2021/11/17 06:37:38;;;;;;;20.70;18.27;;;;;;;7.82;67.42;100557.72;4381510;32;34551;-80
2021/11/17 06:40:13;;;;;;;24.12;18.58;;;;;;;7.91;67.07;100554.41;4369066;32;33661;-81
2021/11/17 06:42:44;;;;;;;25.30;20.58;;;;;;;7.96;67.04;100554.94;4356779;32;33589;-81
2021/11/17 06:45:16;;;;;;;30.15;21.80;;;;;;;7.89;67.13;100555.47;4380583;32;34100;-82
2021/11/17 06:47:45;;;;;;;17.33;15.73;;;;;;;7.88;67.42;100565.25;4381184;32;33956;-84
2021/11/17 06:50:12;;;;;;;;;;;;;;;8.23;66.21;100555.66;4364296;32;31773;-83
2021/11/17 06:52:40;;;;;;;19.40;16.45;;;;;;;8.25;65.85;100564.31;4380830;32;33520;-80
2021/11/17 06:55:09;;;;;;;24.23;19.48;;;;;;;8.16;66.16;100554.34;4370273;32;35906;-85
2021/11/17 06:57:37;;;;;;;25.92;18.90;;;;;;;8.16;66.12;100554.34;4367198;32;32699;-82
2021/11/17 07:00:08;;;;;;;28.08;18.92;;;;;;;7.99;66.87;100556.50;4353514;32;33079;-82
2021/11/17 07:02:37;;;;;;;28.95;18.58;;;;;;;8.18;66.32;100549.78;4368056;32;35504;-81
2021/11/17 07:05:05;;;;;;;22.87;16.62;;;;;;;8.13;66.41;100566.97;4354433;32;33440;-80
2021/11/17 07:07:33;;;;;;;32.15;23.50;;;;;;;7.99;67.24;100561.81;4370798;32;34709;-81
2021/11/17 07:10:00;;;;;;;;;;;;;;;8.21;66.32;100568.13;4344326;32;33627;-82
2021/11/17 07:12:28;;;;;;;22.58;16.73;;;;;;;8.19;66.31;100561.28;4377357;32;33880;-80
2021/11/17 07:14:56;;;;;;;25.23;18.55;;;;;;;8.11;66.54;100568.91;4368915;32;34383;-82
2021/11/17 07:17:24;;;;;;;;;;;;;;;7.98;66.70;100566.28;4379674;32;35292;-81
2021/11/17 07:19:53;;;;;;;23.10;16.40;;;;;;;8.02;66.74;100565.09;4381460;32;33258;-81
2021/11/17 07:22:21;;;;;;;26.00;19.85;;;;;;;7.90;67.07;100568.63;4367048;32;34653;-81
2021/11/17 07:24:49;;;;;;;21.75;17.73;;;;;;;8.06;66.71;100561.28;4368704;32;34516;-84
2021/11/17 07:27:24;;;;;;;26.42;21.42;;;;;;;7.66;67.79;100561.56;4356798;32;34472;-83
2021/11/17 07:29:54;;;;;;;22.15;16.30;;;;;;;7.55;68.05;100567.59;4355571;32;33631;-81
2021/11/17 07:32:23;;;;;;;23.90;19.62;;;;;;;7.65;67.84;100562.50;4355399;32;33789;-81
2021/11/17 07:34:52;;;;;;;27.42;19.08;;;;;;;7.74;67.91;100562.69;4356717;32;35435;-81
2021/11/17 07:37:19;;;;;;;29.65;17.08;;;;;;;7.83;67.42;100566.53;4378687;32;34605;-85
2021/11/17 07:39:47;;;;;;;18.73;16.77;;;;;;;7.90;67.30;100557.16;4368697;32;33497;-81
2021/11/17 07:42:15;;;;;;;;;;;;;;;7.93;66.93;100555.16;4366843;32;33841;-84
2021/11/17 07:44:43;;;;;;;22.92;19.65;;;;;;;7.83;67.13;100563.88;4379007;32;33559;-81
2021/11/17 07:47:16;;;;;;;20.80;18.37;;;;;;;8.13;66.72;100553.72;4367450;32;33534;-82
2021/11/17 07:49:43;;;;;;;19.08;16.98;;;;;;;8.28;66.07;100565.91;4380316;32;32894;-80
2021/11/17 07:52:11;;;;;;;24.63;18.60;;;;;;;8.19;66.24;100561.28;4368025;32;34554;-80
2021/11/17 07:54:39;;;;;;;23.17;18.90;;;;;;;8.36;65.90;100561.75;4377312;32;33481;-82
2021/11/17 07:57:10;;;;;;;23.20;17.77;;;;;;;8.38;65.94;100558.97;4365437;32;32707;-80
2021/11/17 07:59:39;;;;;;;23.87;18.75;;;;;;;8.66;64.66;100565.63;4356366;32;35668;-81
2021/11/17 08:02:11;;;;;;;24.83;20.08;;;;;;;8.50;65.07;100567.72;4353489;32;32237;-81
2021/11/17 08:04:41;;;;;;;32.60;16.73;;;;;;;8.18;66.39;100568.34;4380367;32;35353;-81
2021/11/17 08:07:13;;;;;;;20.73;16.45;;;;;;;8.50;65.13;100572.16;4366253;32;35027;-81
2021/11/17 08:09:43;;;;;;;24.20;19.77;;;;;;;8.54;65.49;100578.97;4355380;32;33861;-79
2021/11/17 08:12:11;;;;;;;21.50;16.85;;;;;;;8.83;64.23;100583.81;4365738;32;34520;-79
2021/11/17 08:14:38;;;;;;;23.08;17.75;;;;;;;9.01;63.78;100571.81;4379172;32;34564;-79
2021/11/17 08:17:06;;;;;;;23.58;20.08;;;;;;;8.95;64.12;100569.63;4380076;32;34019;-81
2021/11/17 08:19:34;;;;;;;21.65;17.70;;;;;;;8.99;64.12;100570.22;4366678;32;32861;-78
2021/11/17 08:22:06;;;;;;;24.12;14.85;;;;;;;8.92;64.03;100571.66;4370001;32;33964;-79
2021/11/17 08:24:37;;;;;;;19.77;17.80;;;;;;;9.11;63.35;100570.16;4380229;32;33456;-79
2021/11/17 08:27:07;;;;;;;20.77;16.83;;;;;;;9.39;62.28;100572.41;4354500;32;34241;-79
2021/11/17 08:29:35;;;;;;;19.55;14.30;;;;;;;9.58;61.19;100571.81;4379394;32;35065;-80
2021/11/17 08:32:03;;;;;;;20.00;18.08;;;;;;;9.28;62.42;100572.34;4354240;32;33133;-81
2021/11/17 08:34:30;;;;;;;;;;;;;;;9.45;61.77;100576.37;4353973;32;35406;-81
2021/11/17 08:36:58;;;;;;;25.90;19.00;;;;;;;9.68;60.80;100570.13;4365002;32;34172;-79
2021/11/17 08:39:26;;;;;;;18.80;16.98;;;;;;;9.55;61.98;100577.38;4379166;32;33431;-81
2021/11/17 08:41:53;;;;;;;;;;;;;;;9.56;61.51;100584.38;4377951;32;31911;-79
2021/11/17 08:44:21;;;;;;;18.87;16.90;;;;;;;9.58;61.62;100580.63;4367382;32;35812;-83
2021/11/17 08:46:52;;;;;;;19.45;17.42;;;;;;;9.41;62.17;100572.25;4367749;32;34616;-80
2021/11/17 08:49:20;;;;;;;34.15;17.98;;;;;;;9.37;62.28;100579.59;4353571;32;34335;-80
2021/11/17 08:51:48;;;;;;;25.77;18.42;;;;;;;9.59;61.90;100584.97;4367488;32;34826;-80
2021/11/17 08:54:16;;;;;;;18.42;16.30;;;;;;;9.72;62.02;100577.72;4367614;32;33772;-79
2021/11/17 08:56:44;;;;;;;18.75;16.70;;;;;;;10.17;59.42;100581.25;4377853;32;33277;-82
2021/11/17 08:59:12;;;;;;;21.33;17.70;;;;;;;9.68;61.04;100578.94;4352992;32;33258;-80
2021/11/17 09:01:40;;;;;;;18.27;16.40;;;;;;;10.07;60.22;100577.62;4367153;32;34237;-82
2021/11/17 09:04:08;;;;;;;14.35;12.75;;;;;;;9.97;60.53;100572.19;4338996;32;34744;-79
2021/11/17 09:10:37;;;;;;;21.92;15.60;;;;;;;10.17;59.51;100576.78;4335479;32;32134;-80
2021/11/17 09:13:06;;;;;;;18.70;13.57;;;;;;;10.33;58.68;100571.94;4331599;32;34290;-80
2021/11/17 09:15:38;;;;;;;17.87;13.38;;;;;;;10.21;59.03;100572.06;4347790;32;34707;-81
2021/11/17 09:18:17;;;;;;;15.25;12.57;;;;;;;10.40;58.63;100577.59;4328241;33;33982;-80
2021/11/17 09:20:47;;;;;;;26.40;17.15;;;;;;;10.49;58.05;100575.00;4341515;32;33543;-82
2021/11/17 09:23:17;;;;;;;18.95;15.57;;;;;;;10.43;58.24;100577.34;4320417;33;33162;-81
2021/11/17 09:25:45;;;;;;;16.15;14.30;;;;;;;10.38;58.05;100574.22;4322531;33;34208;-80
2021/11/17 09:28:19;;;;;;;15.77;13.50;;;;;;;10.52;57.16;100582.78;4347079;32;34167;-80
2021/11/17 09:30:48;;;;;;;14.55;12.95;;;;;;;10.26;57.73;100568.06;4345251;32;32999;-80
2021/11/17 09:33:17;;;;;;;17.10;13.98;;;;;;;10.28;58.24;100566.13;4333481;32;33537;-80
2021/11/17 09:35:46;;;;;;;15.98;13.77;;;;;;;10.22;58.14;100563.13;4334108;32;35742;-80
2021/11/17 09:38:18;;;;;;;16.00;13.13;;;;;;;10.44;57.42;100566.59;4345956;32;33891;-80
2021/11/17 09:40:53;;;;;;;16.55;14.18;;;;;;;10.29;58.58;100564.31;4335062;32;33233;-81
2021/11/17 09:43:31;;;;;;;15.73;13.18;;;;;;;10.43;58.79;100562.22;4346715;32;33124;-81
2021/11/17 09:46:00;;;;;;;13.85;12.60;;;;;;;10.62;55.90;100556.25;4333491;32;34667;-81
2021/11/17 09:48:31;;;;;;;18.95;12.73;;;;;;;10.47;57.45;100549.53;4374543;32;34658;-80
2021/11/17 09:51:05;;;;;;;17.12;12.63;;;;;;;10.66;56.72;100550.53;4377468;32;34537;-80
2021/11/17 09:53:45;;;;;;;14.48;13.02;;;;;;;11.17;54.94;100542.69;4352278;32;35264;-82
2021/11/17 09:56:27;;;;;;;14.63;10.80;;;;;;;11.35;53.87;100541.97;4366648;32;34698;-80
2021/11/17 09:58:58;;;;;;;17.87;12.93;;;;;;;11.32;53.65;100545.72;4364546;32;33554;-80
2021/11/17 10:01:31;;;;;;;14.40;11.90;;;;;;;11.01;54.75;100536.94;4377204;32;33428;-81
2021/11/17 10:04:21;;;;;;;16.58;11.82;;;;;;;11.13;54.76;100530.59;4352092;32;34023;-81
2021/11/17 10:15:11;;;;;;;17.92;12.65;;;;;;;11.18;54.87;100528.37;4371714;32;33942;-80
2021/11/17 10:17:53;;;;;;;14.65;13.10;;;;;;;10.74;55.60;100524.13;4367303;32;34385;-81
2021/11/17 10:20:35;;;;;;;17.45;11.38;;;;;;;11.07;54.65;100521.31;4366594;32;35141;-81
2021/11/17 10:23:06;;;;;;;13.65;12.32;;;;;;;10.90;55.41;100518.37;4365139;32;33115;-81
2021/11/17 10:25:44;;;;;;;18.58;11.43;;;;;;;10.52;57.12;100523.38;4378336;32;33686;-81
2021/11/17 10:28:12;;;;;;;14.30;11.02;;;;;;;10.69;56.86;100521.03;4367521;32;36290;-81
2021/11/17 10:30:50;;;;;;;;;;;;;;;11.24;55.12;100515.37;4367809;32;32350;-82
2021/11/17 10:33:22;;;;;;;;;;;;;;;11.03;55.33;100521.72;4380149;32;32903;-80
2021/11/17 10:36:20;;;;;;;15.10;12.48;;;;;;;10.94;55.79;100518.00;4366971;32;34738;-81
2021/11/17 10:38:55;;;;;;;13.60;11.65;;;;;;;11.53;53.92;100511.09;4366381;32;34785;-81
2021/11/17 10:41:27;;;;;;;14.55;11.90;;;;;;;11.43;54.98;100504.84;4367285;32;34027;-80
2021/11/17 10:44:03;;;;;;;12.05;10.88;;;;;;;11.64;54.03;100492.38;4355123;32;33072;-83
2021/11/17 10:46:42;;;;;;;12.02;10.98;;;;;;;11.61;54.28;100488.13;4379456;32;33846;-80
2021/11/17 10:49:14;;;;;;;11.57;10.13;;;;;;;12.02;52.20;100503.16;4379308;32;34733;-82
2021/11/17 10:52:01;;;;;;;12.65;11.35;;;;;;;11.42;53.44;100490.69;4379388;32;33799;-82
2021/11/17 10:54:34;;;;;;;14.82;11.10;;;;;;;11.94;52.17;100495.00;4366718;32;33520;-80
2021/11/17 10:57:13;;;;;;;9.48;8.57;;;;;;;11.97;52.52;100503.56;4367311;32;34313;-80
2021/11/17 10:59:44;;;;;;;10.80;9.70;;;;;;;12.16;52.38;100494.75;4367174;32;34657;-80
2021/11/17 11:02:13;;;;;;;11.23;10.27;;;;;;;12.64;49.85;100492.97;4366570;32;33660;-80
2021/11/17 11:04:57;;;;;;;13.52;8.35;;;;;;;12.71;50.01;100494.97;4366065;32;33732;-80
2021/11/17 11:07:44;;;;;;;11.32;9.43;;;;;;;12.63;50.48;100488.63;4367185;32;33646;-82
2021/11/17 11:10:27;;;;;;;8.95;8.05;;;;;;;12.82;50.53;100493.94;4368377;32;34471;-81
2021/11/17 11:12:56;;;;;;;10.05;8.95;;;;;;;12.87;51.09;100487.22;4377833;32;35027;-84
2021/11/17 11:15:41;;;;;;;13.20;9.20;;;;;;;13.52;48.57;100489.06;4367586;32;34353;-83
2021/11/17 11:18:09;;;;;;;15.10;10.40;;;;;;;13.01;49.50;100489.47;4354415;32;32686;-83
2021/11/17 11:20:43;;;;;;;12.27;9.45;;;;;;;13.31;49.22;100477.75;4378611;32;33330;-84
2021/11/17 11:23:38;;;;;;;9.52;8.73;;;;;;;13.36;48.66;100478.16;4376074;32;35129;-83
2021/11/17 11:26:25;;;;;;;9.13;8.20;;;;;;;13.01;48.64;100477.94;4379346;32;34217;-84
2021/11/17 11:29:01;;;;;;;11.38;8.57;;;;;;;12.95;49.95;100481.19;4367300;32;34898;-82
2021/11/17 11:31:36;;;;;;;10.82;9.57;;;;;;;12.79;50.34;100479.09;4367373;32;34585;-83
2021/11/17 11:34:04;;;;;;;8.98;7.70;;;;;;;12.85;49.91;100480.34;4377156;32;33844;-83
2021/11/17 11:36:43;;;;;;;8.20;7.32;;;;;;;12.81;49.86;100477.09;4367694;32;33003;-82
2021/11/17 11:39:11;;;;;;;8.40;7.57;;;;;;;13.09;48.86;100476.25;4359269;32;33838;-81
2021/11/17 11:41:38;;;;;;;8.80;8.10;;;;;;;13.06;49.21;100479.22;4376824;32;33294;-84
2021/11/17 11:44:23;;;;;;;9.55;8.15;;;;;;;13.29;47.84;100472.53;4377646;32;35539;-85
2021/11/17 11:47:00;;;;;;;8.95;8.13;;;;;;;12.31;50.09;100485.38;4377487;32;33298;-82
2021/11/17 11:49:46;;;;;;;8.87;8.03;;;;;;;12.83;49.76;100472.47;4367821;32;33715;-80
2021/11/17 11:52:24;;;;;;;8.80;7.82;;;;;;;12.81;49.71;100474.44;4378579;32;34325;-81
2021/11/17 11:54:51;;;;;;;10.70;9.77;;;;;;;13.07;49.06;100474.72;4378802;32;35274;-81
2021/11/17 11:57:19;;;;;;;;;;;;;;;12.87;49.15;100471.22;4368819;32;33631;-80
2021/11/17 11:59:47;;;;;;;7.07;6.57;;;;;;;13.46;47.92;100463.78;4377431;32;33229;-83
2021/11/17 12:02:19;;;;;;;9.23;8.02;;;;;;;13.35;48.32;100463.97;4364761;32;34689;-81
2021/11/17 12:05:01;;;;;;;9.55;7.78;;;;;;;13.49;47.96;100465.31;4364934;32;33801;-83
2021/11/17 12:07:39;;;;;;;8.05;7.40;;;;;;;13.68;47.20;100463.38;4354578;32;34181;-82
2021/11/17 12:10:10;;;;;;;;;;;;;;;13.44;47.36;100462.22;4366632;32;33842;-80
2021/11/17 12:12:40;;;;;;;11.40;7.53;;;;;;;12.97;49.12;100452.50;4367238;32;34783;-83
2021/11/17 12:15:15;;;;;;;8.15;7.45;;;;;;;13.47;47.86;100448.56;4378701;32;34157;-81
2021/11/17 12:17:43;;;;;;;9.23;8.27;;;;;;;13.25;48.31;100449.78;4368533;32;34100;-83
2021/11/17 12:20:23;;;;;;;10.45;9.55;;;;;;;13.11;48.37;100446.75;4366997;32;32229;-81
2021/11/17 12:22:55;;;;;;;9.00;8.07;;;;;;;13.10;48.90;100443.22;4377816;32;35828;-81
2021/11/17 12:25:25;;;;;;;9.88;8.90;;;;;;;13.42;47.61;100442.84;4387437;32;34581;-81
2021/11/17 12:27:58;;;;;;;8.60;7.07;;;;;;;12.85;49.73;100434.94;4379060;32;32799;-79
2021/11/17 12:30:45;;;;;;;8.77;8.00;;;;;;;12.65;50.25;100435.97;4366907;32;34065;-80
2021/11/17 12:33:31;;;;;;;9.90;9.10;;;;;;;12.90;49.46;100432.66;4366967;32;34602;-81
2021/11/17 12:36:32;;;;;;;13.30;9.57;;;;;;;13.11;49.67;100434.22;4368018;32;33939;-81
2021/11/17 12:39:16;;;;;;;15.65;9.20;;;;;;;13.36;48.12;100430.03;4348084;32;33506;-82
2021/11/17 12:41:44;;;;;;;11.30;9.60;;;;;;;13.49;47.57;100415.34;4366853;32;34615;-82
2021/11/17 12:44:31;;;;;;;12.45;10.18;;;;;;;13.61;47.03;100421.34;4367110;32;34829;-81
2021/11/17 12:46:59;;;;;;;8.98;7.97;;;;;;;13.43;47.20;100412.44;4365926;32;34580;-81
2021/11/17 12:49:47;;;;;;;9.88;8.95;;;;;;;13.11;49.21;100412.00;4367539;32;32924;-81
2021/11/17 12:52:23;;;;;;;8.23;7.43;;;;;;;13.46;47.31;100410.31;4390497;32;33347;-84
2021/11/17 12:55:29;;;;;;;8.50;7.80;;;;;;;13.15;48.28;100414.25;4377197;32;35254;-81
2021/11/17 12:58:04;;;;;;;8.65;7.82;;;;;;;13.23;47.86;100421.53;4366275;32;34393;-83
2021/11/17 13:00:43;;;;;;;11.23;10.07;;;;;;;12.78;48.78;100409.78;4353008;32;33733;-81
2021/11/17 13:03:37;;;;;;;11.88;9.77;;;;;;;12.69;49.30;100416.84;4378510;32;33454;-81
2021/11/17 13:06:06;;;;;;;9.63;8.77;;;;;;;12.51;49.85;100415.88;4352403;32;34151;-82
2021/11/17 13:08:36;;;;;;;10.73;8.98;;;;;;;12.48;50.10;100415.31;4366520;32;33640;-80
2021/11/17 13:11:11;;;;;;;15.05;11.15;;;;;;;12.47;50.24;100403.78;4378055;32;34764;-80
2021/11/17 13:13:55;;;;;;;9.10;8.10;;;;;;;12.41;50.64;100409.72;4365911;32;33547;-83
2021/11/17 13:16:26;;;;;;;9.90;8.95;;;;;;;12.54;50.30;100401.38;4352836;32;35446;-81
2021/11/17 13:18:58;;;;;;;10.73;9.75;;;;;;;12.72;50.42;100405.88;4365572;32;35075;-83
2021/11/17 13:21:36;;;;;;;11.30;9.65;;;;;;;12.90;49.16;100400.63;4364337;32;33093;-80
2021/11/17 13:30:36;;;;;;;12.32;10.77;;;;;;;11.97;51.55;100404.03;4401924;27;32224;-79
2021/11/17 13:33:30;;;;;;;12.00;9.48;;;;;;;12.21;51.42;100404.50;4412554;32;33950;-79
2021/11/17 13:36:01;;;;;;;10.45;9.40;;;;;;;12.21;51.41;100399.16;4409920;32;33840;-80
2021/11/17 13:38:30;;;;;;;10.45;9.02;;;;;;;12.21;52.32;100392.00;4408450;32;34529;-80
2021/11/17 13:41:01;;;;;;;14.65;12.45;;;;;;;12.64;50.60;100395.06;4411245;32;34846;-80
2021/11/17 13:43:30;;;;;;;13.62;11.12;;;;;;;12.70;49.96;100390.97;4397638;32;34398;-81
2021/11/17 13:46:04;;;;;;;10.68;9.73;;;;;;;12.71;50.18;100392.66;4410692;32;33432;-81
2021/11/17 13:48:34;;;;;;;11.23;10.13;;;;;;;12.65;50.62;100396.75;4417552;32;35403;-80
2021/11/17 13:51:06;;;;;;;9.45;8.60;;;;;;;12.64;51.00;100402.22;4399471;32;32931;-80
2021/11/17 13:53:35;;;;;;;11.07;10.07;;;;;;;12.93;49.71;100401.19;4383515;32;33311;-80
2021/11/17 13:56:13;;;;;;;13.73;11.10;;;;;;;12.94;49.98;100400.22;4375218;32;32459;-80
2021/11/17 13:58:43;;;;;;;11.00;9.82;;;;;;;12.88;49.71;100408.81;4380593;32;34548;-80
2021/11/17 14:01:11;;;;;;;11.18;10.18;;;;;;;12.87;49.87;100409.78;4385470;32;32764;-79
2021/11/17 14:03:41;;;;;;;16.37;11.45;;;;;;;12.66;50.76;100406.44;4384837;32;33932;-80
2021/11/17 14:06:09;;;;;;;;;;;;;;;12.88;50.05;100407.94;4382996;32;34096;-80
2021/11/17 14:08:38;;;;;;;8.85;8.15;;;;;;;12.68;50.50;100414.31;4397160;32;33774;-80
2021/11/17 14:11:06;;;;;;;11.77;10.02;;;;;;;12.61;50.63;100403.37;4400494;32;35676;-80
2021/11/17 14:13:36;;;;;;;9.55;8.65;;;;;;;12.61;50.66;100410.50;4399508;32;33074;-80
2021/11/17 14:16:05;;;;;;;10.68;9.65;;;;;;;12.60;51.89;100407.03;4401812;32;34409;-80
2021/11/17 14:18:35;;;;;;;19.35;11.00;;;;;;;12.76;50.95;100404.59;4414174;32;34584;-80
2021/11/17 14:21:09;;;;;;;10.30;9.35;;;;;;;12.80;50.85;100407.81;4400645;32;33278;-78
2021/11/17 14:23:38;;;;;;;8.63;7.80;;;;;;;12.98;50.87;100403.44;4402643;32;32960;-80
2021/11/17 14:26:08;;;;;;;;;;;;;;;13.10;50.24;100404.97;4401455;32;33884;-79
2021/11/17 14:28:39;;;;;;;10.23;8.85;;;;;;;12.89;51.02;100401.62;4400752;32;35145;-80
2021/11/17 14:31:29;;;;;;;15.65;8.73;;;;;;;13.03;50.81;100406.53;4393076;32;33198;-80
2021/11/17 14:33:59;;;;;;;21.75;8.38;;;;;;;12.91;51.07;100405.84;4395616;32;33977;-80
2021/11/17 14:36:51;;;;;;;9.00;8.10;;;;;;;12.87;51.54;100408.94;4397130;32;33006;-80
2021/11/17 14:39:21;;;;;;;9.15;8.20;;;;;;;12.97;51.32;100404.44;4392856;32;34471;-80
2021/11/17 14:41:49;;;;;;;10.30;9.15;;;;;;;13.06;51.07;100396.41;4396306;32;34023;-80
2021/11/17 14:44:17;;;;;;;8.52;7.80;;;;;;;13.02;50.90;100404.88;4384510;32;33428;-80
2021/11/17 14:46:45;;;;;;;9.60;8.27;;;;;;;12.91;51.14;100413.84;4398252;32;32777;-79
2021/11/17 14:49:13;;;;;;;9.75;8.75;;;;;;;12.87;51.30;100422.28;4395053;32;35055;-80